sensor_id;sensor_type;location;lat;lon;timestamp;P1;durP1;ratioP1;P2;durP2;ratioP2
23676;SDS011;31493;49.058;12.190;2022-11-27T00:02:13;34.20;;;16.10;;
23676;SDS011;31493;49.058;12.190;2022-11-27T00:04:40;50.45;;;15.45;;
23676;SDS011;31493;49.058;12.190;2022-11-27T00:07:07;33.30;;;14.95;;
23676;SDS011;31493;49.058;12.190;2022-11-27T00:09:34;22.88;;;13.02;;
23676;SDS011;31493;49.058;12.190;2022-11-27T00:12:01;23.85;;;12.82;;
23676;SDS011;31493;49.058;12.190;2022-11-27T00:14:28;31.13;;;14.15;;
23676;SDS011;31493;49.058;12.190;2022-11-27T00:16:55;26.33;;;12.25;;
23676;SDS011;31493;49.058;12.190;2022-11-27T00:19:25;54.75;;;33.53;;
23676;SDS011;31493;49.058;12.190;2022-11-27T00:21:53;34.33;;;17.75;;
23676;SDS011;31493;49.058;12.190;2022-11-27T00:24:20;34.83;;;20.00;;
23676;SDS011;31493;49.058;12.190;2022-11-27T00:26:47;35.13;;;16.88;;
23676;SDS011;31493;49.058;12.190;2022-11-27T00:29:15;31.55;;;13.73;;
23676;SDS011;31493;49.058;12.190;2022-11-27T00:31:42;28.27;;;12.35;;
23676;SDS011;31493;49.058;12.190;2022-11-27T00:34:09;24.38;;;12.18;;
23676;SDS011;31493;49.058;12.190;2022-11-27T00:36:37;24.05;;;11.93;;
23676;SDS011;31493;49.058;12.190;2022-11-27T00:39:04;23.17;;;10.93;;
23676;SDS011;31493;49.058;12.190;2022-11-27T00:41:32;22.90;;;11.43;;
23676;SDS011;31493;49.058;12.190;2022-11-27T00:43:59;21.30;;;10.80;;
23676;SDS011;31493;49.058;12.190;2022-11-27T00:46:27;26.20;;;10.98;;
23676;SDS011;31493;49.058;12.190;2022-11-27T00:51:22;33.15;;;16.33;;
23676;SDS011;31493;49.058;12.190;2022-11-27T00:53:51;76.00;;;13.52;;
23676;SDS011;31493;49.058;12.190;2022-11-27T00:56:20;38.88;;;14.80;;
23676;SDS011;31493;49.058;12.190;2022-11-27T00:58:50;47.95;;;19.35;;
23676;SDS011;31493;49.058;12.190;2022-11-27T01:01:18;39.75;;;16.92;;
23676;SDS011;31493;49.058;12.190;2022-11-27T01:03:47;101.13;;;18.58;;
23676;SDS011;31493;49.058;12.190;2022-11-27T01:06:15;85.88;;;13.95;;
23676;SDS011;31493;49.058;12.190;2022-11-27T01:08:43;98.65;;;10.90;;
23676;SDS011;31493;49.058;12.190;2022-11-27T01:11:13;33.45;;;12.20;;
23676;SDS011;31493;49.058;12.190;2022-11-27T01:13:41;64.47;;;14.18;;
23676;SDS011;31493;49.058;12.190;2022-11-27T01:16:10;47.88;;;15.25;;
23676;SDS011;31493;49.058;12.190;2022-11-27T01:18:39;74.18;;;14.93;;
23676;SDS011;31493;49.058;12.190;2022-11-27T01:21:08;147.35;;;14.60;;
23676;SDS011;31493;49.058;12.190;2022-11-27T01:23:36;144.25;;;12.68;;
23676;SDS011;31493;49.058;12.190;2022-11-27T01:26:04;110.57;;;11.25;;
23676;SDS011;31493;49.058;12.190;2022-11-27T01:28:34;124.93;;;13.15;;
23676;SDS011;31493;49.058;12.190;2022-11-27T01:31:04;38.55;;;13.15;;
23676;SDS011;31493;49.058;12.190;2022-11-27T01:33:32;37.28;;;12.23;;
23676;SDS011;31493;49.058;12.190;2022-11-27T01:36:00;53.78;;;10.57;;
23676;SDS011;31493;49.058;12.190;2022-11-27T01:40:56;72.85;;;9.10;;
23676;SDS011;31493;49.058;12.190;2022-11-27T01:43:39;121.18;;;9.90;;
23676;SDS011;31493;49.058;12.190;2022-11-27T01:49:17;164.18;;;8.88;;
23676;SDS011;31493;49.058;12.190;2022-11-27T01:51:50;153.95;;;10.07;;
23676;SDS011;31493;49.058;12.190;2022-11-27T01:54:23;151.32;;;10.75;;
23676;SDS011;31493;49.058;12.190;2022-11-27T01:56:55;156.70;;;8.20;;
23676;SDS011;31493;49.058;12.190;2022-11-27T01:59:29;89.95;;;8.27;;
23676;SDS011;31493;49.058;12.190;2022-11-27T02:01:56;213.02;;;11.05;;
23676;SDS011;31493;49.058;12.190;2022-11-27T02:04:23;115.72;;;9.98;;
23676;SDS011;31493;49.058;12.190;2022-11-27T02:06:50;145.40;;;10.75;;
23676;SDS011;31493;49.058;12.190;2022-11-27T02:09:17;183.68;;;12.68;;
23676;SDS011;31493;49.058;12.190;2022-11-27T02:11:45;283.67;;;14.82;;
23676;SDS011;31493;49.058;12.190;2022-11-27T02:14:22;202.65;;;13.93;;
23676;SDS011;31493;49.058;12.190;2022-11-27T02:16:57;256.55;;;13.63;;
23676;SDS011;31493;49.058;12.190;2022-11-27T02:19:36;177.27;;;13.38;;
23676;SDS011;31493;49.058;12.190;2022-11-27T02:22:21;108.18;;;10.05;;
23676;SDS011;31493;49.058;12.190;2022-11-27T02:25:00;116.63;;;10.52;;
23676;SDS011;31493;49.058;12.190;2022-11-27T02:30:29;78.63;;;9.38;;
23676;SDS011;31493;49.058;12.190;2022-11-27T02:33:02;94.10;;;10.40;;
23676;SDS011;31493;49.058;12.190;2022-11-27T02:35:36;131.23;;;10.45;;
23676;SDS011;31493;49.058;12.190;2022-11-27T02:38:08;99.55;;;10.30;;
23676;SDS011;31493;49.058;12.190;2022-11-27T02:40:41;97.35;;;8.73;;
23676;SDS011;31493;49.058;12.190;2022-11-27T02:43:14;66.20;;;9.70;;
23676;SDS011;31493;49.058;12.190;2022-11-27T02:45:47;90.72;;;9.05;;
23676;SDS011;31493;49.058;12.190;2022-11-27T02:48:17;84.25;;;8.35;;
23676;SDS011;31493;49.058;12.190;2022-11-27T02:50:47;150.00;;;9.80;;
23676;SDS011;31493;49.058;12.190;2022-11-27T02:55:45;107.63;;;7.80;;
23676;SDS011;31493;49.058;12.190;2022-11-27T02:58:15;128.75;;;8.60;;
23676;SDS011;31493;49.058;12.190;2022-11-27T03:00:48;114.03;;;7.72;;
23676;SDS011;31493;49.058;12.190;2022-11-27T03:03:17;235.20;;;10.93;;
23676;SDS011;31493;49.058;12.190;2022-11-27T03:05:48;268.02;;;11.27;;
23676;SDS011;31493;49.058;12.190;2022-11-27T03:08:20;261.70;;;11.85;;
23676;SDS011;31493;49.058;12.190;2022-11-27T03:10:53;366.88;;;14.02;;
23676;SDS011;31493;49.058;12.190;2022-11-27T03:13:26;444.90;;;14.00;;
23676;SDS011;31493;49.058;12.190;2022-11-27T03:16:00;301.90;;;13.57;;
23676;SDS011;31493;49.058;12.190;2022-11-27T03:18:36;387.83;;;11.65;;
23676;SDS011;31493;49.058;12.190;2022-11-27T03:21:09;226.27;;;12.60;;
23676;SDS011;31493;49.058;12.190;2022-11-27T03:23:46;517.25;;;17.15;;
23676;SDS011;31493;49.058;12.190;2022-11-27T03:26:14;326.70;;;12.30;;
23676;SDS011;31493;49.058;12.190;2022-11-27T03:28:41;258.70;;;12.93;;
23676;SDS011;31493;49.058;12.190;2022-11-27T03:31:11;291.67;;;12.13;;
23676;SDS011;31493;49.058;12.190;2022-11-27T03:33:38;324.77;;;13.35;;
23676;SDS011;31493;49.058;12.190;2022-11-27T03:36:09;325.55;;;12.98;;
23676;SDS011;31493;49.058;12.190;2022-11-27T03:38:38;279.75;;;11.57;;
23676;SDS011;31493;49.058;12.190;2022-11-27T03:41:06;194.02;;;9.80;;
23676;SDS011;31493;49.058;12.190;2022-11-27T03:43:37;177.93;;;9.55;;
23676;SDS011;31493;49.058;12.190;2022-11-27T03:46:14;598.20;;;20.88;;
23676;SDS011;31493;49.058;12.190;2022-11-27T03:48:49;616.40;;;21.10;;
23676;SDS011;31493;49.058;12.190;2022-11-27T03:51:26;745.45;;;24.70;;
23676;SDS011;31493;49.058;12.190;2022-11-27T03:54:08;724.90;;;23.55;;
23676;SDS011;31493;49.058;12.190;2022-11-27T03:56:40;578.90;;;19.27;;
23676;SDS011;31493;49.058;12.190;2022-11-27T03:59:13;733.47;;;29.05;;
23676;SDS011;31493;49.058;12.190;2022-11-27T04:01:46;352.40;;;14.63;;
23676;SDS011;31493;49.058;12.190;2022-11-27T04:06:40;300.83;;;13.85;;
23676;SDS011;31493;49.058;12.190;2022-11-27T04:09:07;420.77;;;18.35;;
23676;SDS011;31493;49.058;12.190;2022-11-27T04:11:34;257.42;;;13.68;;
23676;SDS011;31493;49.058;12.190;2022-11-27T04:14:01;211.48;;;15.82;;
23676;SDS011;31493;49.058;12.190;2022-11-27T04:16:28;573.83;;;22.85;;
23676;SDS011;31493;49.058;12.190;2022-11-27T04:18:57;425.45;;;18.77;;
23676;SDS011;31493;49.058;12.190;2022-11-27T04:21:24;299.67;;;17.70;;
23676;SDS011;31493;49.058;12.190;2022-11-27T04:23:51;264.90;;;16.38;;
23676;SDS011;31493;49.058;12.190;2022-11-27T04:26:18;377.48;;;14.50;;
23676;SDS011;31493;49.058;12.190;2022-11-27T04:28:45;650.38;;;24.20;;
23676;SDS011;31493;49.058;12.190;2022-11-27T04:31:12;751.58;;;28.85;;
23676;SDS011;31493;49.058;12.190;2022-11-27T04:33:39;461.02;;;20.73;;
23676;SDS011;31493;49.058;12.190;2022-11-27T04:36:07;642.28;;;25.70;;
23676;SDS011;31493;49.058;12.190;2022-11-27T04:38:34;664.50;;;24.08;;
23676;SDS011;31493;49.058;12.190;2022-11-27T04:41:01;501.52;;;20.58;;
23676;SDS011;31493;49.058;12.190;2022-11-27T04:43:28;743.33;;;29.85;;
23676;SDS011;31493;49.058;12.190;2022-11-27T04:45:55;545.85;;;25.70;;
23676;SDS011;31493;49.058;12.190;2022-11-27T04:48:22;466.40;;;20.42;;
23676;SDS011;31493;49.058;12.190;2022-11-27T04:50:49;342.45;;;22.00;;
23676;SDS011;31493;49.058;12.190;2022-11-27T04:53:18;461.67;;;21.98;;
23676;SDS011;31493;49.058;12.190;2022-11-27T04:55:45;232.57;;;15.85;;
23676;SDS011;31493;49.058;12.190;2022-11-27T04:58:11;297.13;;;14.27;;
23676;SDS011;31493;49.058;12.190;2022-11-27T05:00:39;525.95;;;16.27;;
23676;SDS011;31493;49.058;12.190;2022-11-27T05:03:06;423.90;;;17.38;;
23676;SDS011;31493;49.058;12.190;2022-11-27T05:05:32;226.00;;;11.80;;
23676;SDS011;31493;49.058;12.190;2022-11-27T05:07:59;423.35;;;19.88;;
23676;SDS011;31493;49.058;12.190;2022-11-27T05:10:28;587.10;;;21.23;;
23676;SDS011;31493;49.058;12.190;2022-11-27T05:12:55;335.13;;;15.80;;
23676;SDS011;31493;49.058;12.190;2022-11-27T05:15:22;384.33;;;19.45;;
23676;SDS011;31493;49.058;12.190;2022-11-27T05:17:49;305.30;;;15.68;;
23676;SDS011;31493;49.058;12.190;2022-11-27T05:20:16;465.23;;;19.10;;
23676;SDS011;31493;49.058;12.190;2022-11-27T05:22:43;359.00;;;17.73;;
23676;SDS011;31493;49.058;12.190;2022-11-27T05:25:10;409.65;;;19.15;;
23676;SDS011;31493;49.058;12.190;2022-11-27T05:27:39;289.38;;;13.50;;
23676;SDS011;31493;49.058;12.190;2022-11-27T05:30:06;369.15;;;18.00;;
23676;SDS011;31493;49.058;12.190;2022-11-27T05:32:34;362.88;;;19.10;;
23676;SDS011;31493;49.058;12.190;2022-11-27T05:35:01;338.40;;;17.88;;
23676;SDS011;31493;49.058;12.190;2022-11-27T05:37:28;402.48;;;19.33;;
23676;SDS011;31493;49.058;12.190;2022-11-27T05:39:55;364.83;;;21.75;;
23676;SDS011;31493;49.058;12.190;2022-11-27T05:42:22;579.97;;;29.90;;
23676;SDS011;31493;49.058;12.190;2022-11-27T05:44:50;487.58;;;23.40;;
23676;SDS011;31493;49.058;12.190;2022-11-27T05:47:17;352.90;;;23.00;;
23676;SDS011;31493;49.058;12.190;2022-11-27T05:49:44;475.25;;;23.02;;
23676;SDS011;31493;49.058;12.190;2022-11-27T05:52:11;658.90;;;26.55;;
23676;SDS011;31493;49.058;12.190;2022-11-27T05:54:38;694.42;;;31.05;;
23676;SDS011;31493;49.058;12.190;2022-11-27T05:57:06;713.05;;;30.88;;
23676;SDS011;31493;49.058;12.190;2022-11-27T05:59:33;840.92;;;40.03;;
23676;SDS011;31493;49.058;12.190;2022-11-27T06:02:01;1094.57;;;42.55;;
23676;SDS011;31493;49.058;12.190;2022-11-27T06:04:28;749.85;;;34.03;;
23676;SDS011;31493;49.058;12.190;2022-11-27T06:06:58;715.63;;;31.25;;
23676;SDS011;31493;49.058;12.190;2022-11-27T06:09:25;959.30;;;37.95;;
23676;SDS011;31493;49.058;12.190;2022-11-27T06:11:52;842.65;;;36.72;;
23676;SDS011;31493;49.058;12.190;2022-11-27T06:14:19;733.60;;;33.13;;
23676;SDS011;31493;49.058;12.190;2022-11-27T06:16:46;718.80;;;30.42;;
23676;SDS011;31493;49.058;12.190;2022-11-27T06:19:15;801.75;;;27.13;;
23676;SDS011;31493;49.058;12.190;2022-11-27T06:21:42;869.88;;;36.63;;
23676;SDS011;31493;49.058;12.190;2022-11-27T06:26:37;967.80;;;40.72;;
23676;SDS011;31493;49.058;12.190;2022-11-27T06:29:04;817.72;;;31.27;;
23676;SDS011;31493;49.058;12.190;2022-11-27T06:31:31;752.38;;;33.35;;
23676;SDS011;31493;49.058;12.190;2022-11-27T06:33:59;422.75;;;19.63;;
23676;SDS011;31493;49.058;12.190;2022-11-27T06:36:28;649.00;;;27.48;;
23676;SDS011;31493;49.058;12.190;2022-11-27T06:38:56;730.20;;;35.25;;
23676;SDS011;31493;49.058;12.190;2022-11-27T06:41:24;548.95;;;24.80;;
23676;SDS011;31493;49.058;12.190;2022-11-27T06:43:52;724.67;;;33.70;;
23676;SDS011;31493;49.058;12.190;2022-11-27T06:46:20;879.83;;;39.33;;
23676;SDS011;31493;49.058;12.190;2022-11-27T06:48:49;546.90;;;30.40;;
23676;SDS011;31493;49.058;12.190;2022-11-27T06:51:18;924.42;;;39.83;;
23676;SDS011;31493;49.058;12.190;2022-11-27T06:53:48;853.72;;;36.63;;
23676;SDS011;31493;49.058;12.190;2022-11-27T06:56:16;1377.32;;;52.30;;
23676;SDS011;31493;49.058;12.190;2022-11-27T06:58:45;1048.85;;;44.78;;
23676;SDS011;31493;49.058;12.190;2022-11-27T07:01:16;1078.45;;;45.10;;
23676;SDS011;31493;49.058;12.190;2022-11-27T07:03:43;1004.00;;;43.55;;
23676;SDS011;31493;49.058;12.190;2022-11-27T07:06:12;632.30;;;33.67;;
23676;SDS011;31493;49.058;12.190;2022-11-27T07:08:40;1046.65;;;41.85;;
23676;SDS011;31493;49.058;12.190;2022-11-27T07:11:10;875.55;;;38.15;;
23676;SDS011;31493;49.058;12.190;2022-11-27T07:13:39;1104.78;;;45.10;;
23676;SDS011;31493;49.058;12.190;2022-11-27T07:16:07;859.83;;;38.90;;
23676;SDS011;31493;49.058;12.190;2022-11-27T07:18:36;894.72;;;34.78;;
23676;SDS011;31493;49.058;12.190;2022-11-27T07:21:05;964.63;;;38.08;;
23676;SDS011;31493;49.058;12.190;2022-11-27T07:23:32;726.35;;;28.00;;
23676;SDS011;31493;49.058;12.190;2022-11-27T07:26:03;733.95;;;30.80;;
23676;SDS011;31493;49.058;12.190;2022-11-27T07:28:33;657.25;;;30.05;;
23676;SDS011;31493;49.058;12.190;2022-11-27T07:31:00;747.60;;;33.33;;
23676;SDS011;31493;49.058;12.190;2022-11-27T07:33:27;618.60;;;27.15;;
23676;SDS011;31493;49.058;12.190;2022-11-27T07:35:58;860.30;;;36.17;;
23676;SDS011;31493;49.058;12.190;2022-11-27T07:38:26;666.38;;;30.65;;
23676;SDS011;31493;49.058;12.190;2022-11-27T07:40:53;712.63;;;29.67;;
23676;SDS011;31493;49.058;12.190;2022-11-27T07:43:20;565.67;;;27.63;;
23676;SDS011;31493;49.058;12.190;2022-11-27T07:45:49;648.15;;;25.45;;
23676;SDS011;31493;49.058;12.190;2022-11-27T07:48:15;479.35;;;23.20;;
23676;SDS011;31493;49.058;12.190;2022-11-27T07:50:42;763.38;;;37.92;;
23676;SDS011;31493;49.058;12.190;2022-11-27T07:53:10;708.28;;;30.80;;
23676;SDS011;31493;49.058;12.190;2022-11-27T07:55:37;475.67;;;26.27;;
23676;SDS011;31493;49.058;12.190;2022-11-27T07:58:04;687.83;;;28.67;;
23676;SDS011;31493;49.058;12.190;2022-11-27T08:00:32;539.03;;;27.73;;
23676;SDS011;31493;49.058;12.190;2022-11-27T08:03:01;519.60;;;25.48;;
23676;SDS011;31493;49.058;12.190;2022-11-27T08:05:28;1100.82;;;43.95;;
23676;SDS011;31493;49.058;12.190;2022-11-27T08:07:59;836.28;;;35.10;;
23676;SDS011;31493;49.058;12.190;2022-11-27T08:10:28;483.75;;;23.92;;
23676;SDS011;31493;49.058;12.190;2022-11-27T08:12:56;489.20;;;27.73;;
23676;SDS011;31493;49.058;12.190;2022-11-27T08:15:23;612.97;;;28.98;;
23676;SDS011;31493;49.058;12.190;2022-11-27T08:17:50;509.45;;;23.30;;
23676;SDS011;31493;49.058;12.190;2022-11-27T08:20:18;564.25;;;24.48;;
23676;SDS011;31493;49.058;12.190;2022-11-27T08:22:46;694.72;;;32.22;;
23676;SDS011;31493;49.058;12.190;2022-11-27T08:25:13;437.85;;;26.88;;
23676;SDS011;31493;49.058;12.190;2022-11-27T08:27:40;623.05;;;27.73;;
23676;SDS011;31493;49.058;12.190;2022-11-27T08:30:07;637.08;;;27.63;;
23676;SDS011;31493;49.058;12.190;2022-11-27T08:32:36;611.08;;;32.50;;
23676;SDS011;31493;49.058;12.190;2022-11-27T08:35:04;632.20;;;26.02;;
23676;SDS011;31493;49.058;12.190;2022-11-27T08:37:33;608.22;;;26.15;;
23676;SDS011;31493;49.058;12.190;2022-11-27T08:42:27;416.58;;;21.20;;
23676;SDS011;31493;49.058;12.190;2022-11-27T08:44:54;464.75;;;22.55;;
23676;SDS011;31493;49.058;12.190;2022-11-27T08:47:21;403.58;;;20.75;;
23676;SDS011;31493;49.058;12.190;2022-11-27T08:49:48;302.15;;;17.55;;
23676;SDS011;31493;49.058;12.190;2022-11-27T08:52:16;358.33;;;20.10;;
23676;SDS011;31493;49.058;12.190;2022-11-27T08:54:44;288.17;;;19.38;;
23676;SDS011;31493;49.058;12.190;2022-11-27T08:57:11;327.98;;;17.40;;
23676;SDS011;31493;49.058;12.190;2022-11-27T08:59:38;486.65;;;22.83;;
23676;SDS011;31493;49.058;12.190;2022-11-27T09:02:05;298.52;;;20.75;;
23676;SDS011;31493;49.058;12.190;2022-11-27T09:04:32;317.27;;;19.92;;
23676;SDS011;31493;49.058;12.190;2022-11-27T09:06:59;301.00;;;20.10;;
23676;SDS011;31493;49.058;12.190;2022-11-27T09:09:26;230.48;;;18.02;;
23676;SDS011;31493;49.058;12.190;2022-11-27T09:11:55;367.98;;;20.35;;
23676;SDS011;31493;49.058;12.190;2022-11-27T09:14:22;444.75;;;22.15;;
23676;SDS011;31493;49.058;12.190;2022-11-27T09:16:49;238.02;;;15.35;;
23676;SDS011;31493;49.058;12.190;2022-11-27T09:21:47;637.20;;;26.20;;
23676;SDS011;31493;49.058;12.190;2022-11-27T09:26:41;158.57;;;19.08;;
23676;SDS011;31493;49.058;12.190;2022-11-27T09:29:11;148.38;;;15.63;;
23676;SDS011;31493;49.058;12.190;2022-11-27T09:31:38;206.77;;;19.73;;
23676;SDS011;31493;49.058;12.190;2022-11-27T09:34:05;290.77;;;52.42;;
23676;SDS011;31493;49.058;12.190;2022-11-27T09:36:32;184.60;;;15.13;;
23676;SDS011;31493;49.058;12.190;2022-11-27T09:38:59;171.82;;;16.48;;
23676;SDS011;31493;49.058;12.190;2022-11-27T09:44:06;429.08;;;49.47;;
23676;SDS011;31493;49.058;12.190;2022-11-27T09:46:47;296.50;;;30.00;;
23676;SDS011;31493;49.058;12.190;2022-11-27T09:49:16;410.05;;;34.92;;
23676;SDS011;31493;49.058;12.190;2022-11-27T09:51:49;292.63;;;19.70;;
23676;SDS011;31493;49.058;12.190;2022-11-27T09:54:22;560.72;;;40.20;;
23676;SDS011;31493;49.058;12.190;2022-11-27T09:56:52;651.60;;;102.75;;
23676;SDS011;31493;49.058;12.190;2022-11-27T09:59:22;405.90;;;36.50;;
23676;SDS011;31493;49.058;12.190;2022-11-27T10:01:55;327.92;;;19.80;;
23676;SDS011;31493;49.058;12.190;2022-11-27T10:04:22;202.13;;;17.70;;
23676;SDS011;31493;49.058;12.190;2022-11-27T10:07:04;310.07;;;22.50;;
23676;SDS011;31493;49.058;12.190;2022-11-27T10:09:45;265.63;;;18.80;;
23676;SDS011;31493;49.058;12.190;2022-11-27T10:12:23;431.50;;;22.50;;
23676;SDS011;31493;49.058;12.190;2022-11-27T10:15:02;363.90;;;20.17;;
23676;SDS011;31493;49.058;12.190;2022-11-27T10:17:36;388.95;;;20.48;;
23676;SDS011;31493;49.058;12.190;2022-11-27T10:20:14;303.73;;;18.15;;
23676;SDS011;31493;49.058;12.190;2022-11-27T10:22:49;472.33;;;28.45;;
23676;SDS011;31493;49.058;12.190;2022-11-27T10:25:24;396.98;;;21.60;;
23676;SDS011;31493;49.058;12.190;2022-11-27T10:27:59;276.45;;;19.42;;
23676;SDS011;31493;49.058;12.190;2022-11-27T10:30:35;369.25;;;19.55;;
23676;SDS011;31493;49.058;12.190;2022-11-27T10:33:07;447.88;;;26.70;;
23676;SDS011;31493;49.058;12.190;2022-11-27T10:35:42;418.08;;;22.67;;
23676;SDS011;31493;49.058;12.190;2022-11-27T10:38:13;473.55;;;27.92;;
23676;SDS011;31493;49.058;12.190;2022-11-27T10:40:44;457.60;;;25.40;;
23676;SDS011;31493;49.058;12.190;2022-11-27T10:43:18;433.15;;;19.35;;
23676;SDS011;31493;49.058;12.190;2022-11-27T10:48:17;498.83;;;23.90;;
23676;SDS011;31493;49.058;12.190;2022-11-27T10:50:44;353.55;;;25.92;;
23676;SDS011;31493;49.058;12.190;2022-11-27T10:53:13;238.70;;;17.90;;
23676;SDS011;31493;49.058;12.190;2022-11-27T10:55:49;393.25;;;22.63;;
23676;SDS011;31493;49.058;12.190;2022-11-27T10:58:42;406.27;;;22.08;;
23676;SDS011;31493;49.058;12.190;2022-11-27T11:01:15;208.93;;;16.80;;
23676;SDS011;31493;49.058;12.190;2022-11-27T11:03:43;156.60;;;20.65;;
23676;SDS011;31493;49.058;12.190;2022-11-27T11:06:12;459.23;;;25.85;;
23676;SDS011;31493;49.058;12.190;2022-11-27T11:08:42;387.55;;;23.52;;
23676;SDS011;31493;49.058;12.190;2022-11-27T11:11:09;316.60;;;24.95;;
23676;SDS011;31493;49.058;12.190;2022-11-27T11:13:42;460.90;;;27.85;;
23676;SDS011;31493;49.058;12.190;2022-11-27T11:16:22;374.40;;;26.77;;
23676;SDS011;31493;49.058;12.190;2022-11-27T11:18:52;383.25;;;25.25;;
23676;SDS011;31493;49.058;12.190;2022-11-27T11:21:22;481.55;;;25.02;;
23676;SDS011;31493;49.058;12.190;2022-11-27T11:23:54;458.25;;;30.02;;
23676;SDS011;31493;49.058;12.190;2022-11-27T11:26:25;398.23;;;25.27;;
23676;SDS011;31493;49.058;12.190;2022-11-27T11:28:55;346.83;;;20.63;;
23676;SDS011;31493;49.058;12.190;2022-11-27T11:31:29;474.88;;;27.70;;
23676;SDS011;31493;49.058;12.190;2022-11-27T11:33:58;434.70;;;25.52;;
23676;SDS011;31493;49.058;12.190;2022-11-27T11:36:28;367.02;;;46.38;;
23676;SDS011;31493;49.058;12.190;2022-11-27T11:38:55;370.92;;;55.85;;
23676;SDS011;31493;49.058;12.190;2022-11-27T11:41:23;416.38;;;48.72;;
23676;SDS011;31493;49.058;12.190;2022-11-27T11:43:54;383.40;;;49.25;;
23676;SDS011;31493;49.058;12.190;2022-11-27T11:46:24;320.70;;;34.13;;
23676;SDS011;31493;49.058;12.190;2022-11-27T11:48:56;246.90;;;30.02;;
23676;SDS011;31493;49.058;12.190;2022-11-27T11:51:28;243.18;;;29.98;;
23676;SDS011;31493;49.058;12.190;2022-11-27T11:54:09;196.30;;;23.08;;
23676;SDS011;31493;49.058;12.190;2022-11-27T11:56:44;183.75;;;21.13;;
23676;SDS011;31493;49.058;12.190;2022-11-27T11:59:19;188.85;;;28.20;;
23676;SDS011;31493;49.058;12.190;2022-11-27T12:01:57;274.85;;;20.63;;
23676;SDS011;31493;49.058;12.190;2022-11-27T12:04:50;103.20;;;21.42;;
23676;SDS011;31493;49.058;12.190;2022-11-27T12:07:34;207.23;;;26.90;;
23676;SDS011;31493;49.058;12.190;2022-11-27T12:10:16;299.23;;;25.52;;
23676;SDS011;31493;49.058;12.190;2022-11-27T12:12:53;146.32;;;21.30;;
23676;SDS011;31493;49.058;12.190;2022-11-27T12:15:28;135.85;;;29.42;;
23676;SDS011;31493;49.058;12.190;2022-11-27T12:18:00;228.88;;;25.95;;
23676;SDS011;31493;49.058;12.190;2022-11-27T12:20:39;325.10;;;27.60;;
23676;SDS011;31493;49.058;12.190;2022-11-27T12:23:28;182.30;;;28.77;;
23676;SDS011;31493;49.058;12.190;2022-11-27T12:26:09;102.00;;;22.85;;
23676;SDS011;31493;49.058;12.190;2022-11-27T12:28:49;109.15;;;25.25;;
23676;SDS011;31493;49.058;12.190;2022-11-27T12:31:32;167.07;;;25.92;;
23676;SDS011;31493;49.058;12.190;2022-11-27T12:34:10;125.47;;;25.92;;
23676;SDS011;31493;49.058;12.190;2022-11-27T12:36:56;219.73;;;25.35;;
23676;SDS011;31493;49.058;12.190;2022-11-27T12:39:36;191.63;;;24.50;;
23676;SDS011;31493;49.058;12.190;2022-11-27T12:42:13;120.97;;;21.02;;
23676;SDS011;31493;49.058;12.190;2022-11-27T12:44:49;68.22;;;19.85;;
23676;SDS011;31493;49.058;12.190;2022-11-27T12:47:21;81.13;;;21.13;;
23676;SDS011;31493;49.058;12.190;2022-11-27T12:49:54;44.78;;;18.73;;
23676;SDS011;31493;49.058;12.190;2022-11-27T12:52:28;73.95;;;21.67;;
23676;SDS011;31493;49.058;12.190;2022-11-27T12:55:00;62.55;;;25.98;;
23676;SDS011;31493;49.058;12.190;2022-11-27T12:57:33;66.63;;;23.70;;
23676;SDS011;31493;49.058;12.190;2022-11-27T13:00:05;66.50;;;23.30;;
23676;SDS011;31493;49.058;12.190;2022-11-27T13:02:39;52.08;;;18.58;;
23676;SDS011;31493;49.058;12.190;2022-11-27T13:05:12;116.32;;;23.58;;
23676;SDS011;31493;49.058;12.190;2022-11-27T13:07:46;135.02;;;25.95;;
23676;SDS011;31493;49.058;12.190;2022-11-27T13:10:21;103.80;;;22.00;;
23676;SDS011;31493;49.058;12.190;2022-11-27T13:12:54;53.45;;;23.80;;
23676;SDS011;31493;49.058;12.190;2022-11-27T13:15:31;40.85;;;20.15;;
23676;SDS011;31493;49.058;12.190;2022-11-27T13:18:05;54.85;;;31.92;;
23676;SDS011;31493;49.058;12.190;2022-11-27T13:20:39;46.60;;;23.77;;
23676;SDS011;31493;49.058;12.190;2022-11-27T13:23:09;46.00;;;22.48;;
23676;SDS011;31493;49.058;12.190;2022-11-27T13:25:38;50.50;;;22.80;;
23676;SDS011;31493;49.058;12.190;2022-11-27T13:28:16;54.10;;;24.45;;
23676;SDS011;31493;49.058;12.190;2022-11-27T13:30:48;45.38;;;21.15;;
23676;SDS011;31493;49.058;12.190;2022-11-27T13:33:29;47.00;;;20.25;;
23676;SDS011;31493;49.058;12.190;2022-11-27T13:36:03;46.88;;;22.48;;
23676;SDS011;31493;49.058;12.190;2022-11-27T13:38:34;43.03;;;21.45;;
23676;SDS011;31493;49.058;12.190;2022-11-27T13:41:06;43.75;;;19.73;;
23676;SDS011;31493;49.058;12.190;2022-11-27T13:43:37;50.60;;;21.58;;
23676;SDS011;31493;49.058;12.190;2022-11-27T13:46:09;48.72;;;19.88;;
23676;SDS011;31493;49.058;12.190;2022-11-27T13:48:46;60.42;;;22.45;;
23676;SDS011;31493;49.058;12.190;2022-11-27T13:51:21;51.47;;;23.73;;
23676;SDS011;31493;49.058;12.190;2022-11-27T13:53:51;44.33;;;21.77;;
23676;SDS011;31493;49.058;12.190;2022-11-27T13:56:26;43.10;;;22.25;;
23676;SDS011;31493;49.058;12.190;2022-11-27T13:58:54;47.85;;;21.98;;
23676;SDS011;31493;49.058;12.190;2022-11-27T14:01:22;41.38;;;19.67;;
23676;SDS011;31493;49.058;12.190;2022-11-27T14:03:50;44.72;;;21.65;;
23676;SDS011;31493;49.058;12.190;2022-11-27T14:06:21;43.53;;;21.08;;
23676;SDS011;31493;49.058;12.190;2022-11-27T14:08:54;36.55;;;17.23;;
23676;SDS011;31493;49.058;12.190;2022-11-27T14:11:29;42.80;;;20.20;;
23676;SDS011;31493;49.058;12.190;2022-11-27T14:13:59;49.03;;;21.95;;
23676;SDS011;31493;49.058;12.190;2022-11-27T14:16:37;44.67;;;20.45;;
23676;SDS011;31493;49.058;12.190;2022-11-27T14:19:19;37.83;;;19.67;;
23676;SDS011;31493;49.058;12.190;2022-11-27T14:21:50;70.75;;;34.33;;
23676;SDS011;31493;49.058;12.190;2022-11-27T14:24:24;82.07;;;42.17;;
23676;SDS011;31493;49.058;12.190;2022-11-27T14:27:06;109.10;;;48.65;;
23676;SDS011;31493;49.058;12.190;2022-11-27T14:29:40;57.97;;;27.60;;
23676;SDS011;31493;49.058;12.190;2022-11-27T14:32:08;101.80;;;41.70;;
23676;SDS011;31493;49.058;12.190;2022-11-27T14:34:38;129.75;;;49.03;;
23676;SDS011;31493;49.058;12.190;2022-11-27T14:37:05;86.60;;;41.72;;
23676;SDS011;31493;49.058;12.190;2022-11-27T14:39:35;51.03;;;26.88;;
23676;SDS011;31493;49.058;12.190;2022-11-27T14:42:04;52.30;;;25.60;;
23676;SDS011;31493;49.058;12.190;2022-11-27T14:44:33;52.17;;;26.65;;
23676;SDS011;31493;49.058;12.190;2022-11-27T14:47:02;39.75;;;22.20;;
23676;SDS011;31493;49.058;12.190;2022-11-27T14:49:31;37.97;;;22.10;;
23676;SDS011;31493;49.058;12.190;2022-11-27T14:52:01;41.33;;;22.90;;